Time;durP1;ratioP1;P1;durP2;ratioP2;P2;SDS_P1;SDS_P2;PMS_P1;PMS_P2;Temp;Humidity;BMP_temperature;BMP_pressure;BME280_temperature;BME280_humidity;BME280_pressure;Samples;Min_cycle;Max_cycle;Signal;HPM_P1;HPM_P2
2020/12/17 00:02:02;;;;;;;12.85;5.47;;;2.90;76.40;;;;;;5054888;28;20387;-72
2020/12/17 00:04:28;;;;;;;12.98;6.45;;;2.90;76.20;;;;;;5053243;28;20454;-71
2020/12/17 00:06:55;;;;;;;13.77;6.78;;;2.90;76.20;;;;;;5054749;28;20029;-71
2020/12/17 00:09:21;;;;;;;14.40;6.50;;;3.00;76.60;;;;;;5054474;28;20045;-71
2020/12/17 00:11:47;;;;;;;13.70;5.75;;;3.00;76.50;;;;;;5053846;28;20021;-70
2020/12/17 00:14:14;;;;;;;15.63;6.57;;;3.00;76.50;;;;;;5054877;28;20049;-69
2020/12/17 00:16:39;;;;;;;15.88;6.82;;;3.00;76.20;;;;;;5054801;28;20021;-73
2020/12/17 00:19:05;;;;;;;14.15;6.38;;;3.00;76.20;;;;;;5054805;28;20145;-71
2020/12/17 00:21:32;;;;;;;13.90;7.28;;;3.00;76.00;;;;;;5054276;28;20020;-70
2020/12/17 00:23:58;;;;;;;17.13;7.45;;;3.10;76.50;;;;;;5054079;28;20465;-71
2020/12/17 00:26:26;;;;;;;17.75;6.80;;;3.10;76.40;;;;;;5052866;28;20109;-70
2020/12/17 00:28:53;;;;;;;12.70;5.60;;;3.10;76.20;;;;;;5052807;28;20031;-72
2020/12/17 00:31:19;;;;;;;14.77;5.88;;;3.10;76.20;;;;;;5053968;28;20025;-70
2020/12/17 00:33:46;;;;;;;13.82;6.45;;;3.10;76.20;;;;;;5052741;28;20036;-72
2020/12/17 00:36:19;;;;;;;14.55;6.78;;;3.10;76.30;;;;;;5054011;28;20063;-72
2020/12/17 00:38:45;;;;;;;17.75;7.80;;;3.10;76.60;;;;;;5054192;28;20369;-69
2020/12/17 00:41:13;;;;;;;14.82;7.72;;;3.10;76.90;;;;;;5053887;28;20032;-71
2020/12/17 00:43:39;;;;;;;14.65;7.25;;;3.30;77.00;;;;;;5053765;28;20033;-70
2020/12/17 00:46:04;;;;;;;13.60;7.20;;;3.30;76.80;;;;;;5054064;28;20106;-70
2020/12/17 00:48:30;;;;;;;16.23;7.53;;;3.30;76.60;;;;;;5053494;28;20075;-70
2020/12/17 00:50:56;;;;;;;17.42;8.07;;;3.30;76.00;;;;;;5053928;28;20104;-70
2020/12/17 00:53:21;;;;;;;14.38;6.90;;;3.30;75.90;;;;;;5053906;28;20314;-70
2020/12/17 00:55:47;;;;;;;20.58;9.07;;;3.30;76.00;;;;;;5053463;28;20144;-71
2020/12/17 00:58:13;;;;;;;24.15;9.20;;;3.30;76.20;;;;;;5053692;28;20033;-69
2020/12/17 01:00:39;;;;;;;20.85;8.65;;;3.30;76.20;;;;;;5052541;28;20481;-69
2020/12/17 01:03:04;;;;;;;14.15;7.10;;;3.30;75.80;;;;;;5053636;28;20082;-71
2020/12/17 01:05:30;;;;;;;12.80;6.80;;;3.30;75.90;;;;;;5053246;28;20044;-70
2020/12/17 01:07:55;;;;;;;13.60;6.60;;;3.30;76.00;;;;;;5053513;28;20131;-74
2020/12/17 01:10:21;;;;;;;18.58;8.07;;;3.30;76.10;;;;;;5053686;28;20052;-71
2020/12/17 01:12:47;;;;;;;15.65;7.75;;;3.30;76.30;;;;;;5053642;28;20021;-70
2020/12/17 01:15:12;;;;;;;13.18;6.50;;;3.40;76.50;;;;;;5053405;28;20092;-70
2020/12/17 01:17:38;;;;;;;13.55;7.15;;;3.40;76.10;;;;;;5052526;28;20052;-71
2020/12/17 01:20:04;;;;;;;14.88;7.97;;;3.40;76.20;;;;;;5053516;28;20025;-70
2020/12/17 01:22:29;;;;;;;13.10;6.88;;;3.40;76.20;;;;;;5053352;28;20020;-69
2020/12/17 01:24:55;;;;;;;13.13;6.88;;;3.50;76.20;;;;;;5053506;28;20029;-69
2020/12/17 01:27:21;;;;;;;12.98;6.68;;;3.50;76.50;;;;;;5053058;28;20370;-70
2020/12/17 01:29:46;;;;;;;14.63;6.85;;;3.60;76.30;;;;;;5053173;28;20057;-71
2020/12/17 01:32:12;;;;;;;13.00;6.97;;;3.70;76.00;;;;;;5053257;28;20017;-71
2020/12/17 01:34:38;;;;;;;12.23;6.28;;;3.60;75.80;;;;;;5053127;28;20048;-70
2020/12/17 01:37:03;;;;;;;17.05;7.47;;;3.70;75.30;;;;;;5053404;28;20021;-70
2020/12/17 01:39:29;;;;;;;17.13;8.40;;;3.60;75.00;;;;;;5052070;28;20116;-70
2020/12/17 01:41:55;;;;;;;19.80;8.98;;;3.60;75.20;;;;;;5053186;28;20348;-70
2020/12/17 01:44:22;;;;;;;19.27;7.95;;;3.60;75.20;;;;;;5053328;28;20111;-71
2020/12/17 01:46:47;;;;;;;18.60;8.23;;;3.60;75.30;;;;;;5051944;28;20029;-70
2020/12/17 01:49:17;;;;;;;12.50;6.53;;;3.60;75.30;;;;;;5053294;28;20021;-70
2020/12/17 01:51:43;;;;;;;12.52;6.65;;;3.60;75.50;;;;;;5052810;28;20400;-71
2020/12/17 01:54:09;;;;;;;11.35;5.90;;;3.60;75.30;;;;;;5051996;28;20031;-71
2020/12/17 01:56:38;;;;;;;11.13;5.20;;;3.60;75.30;;;;;;5053076;28;20091;-70
2020/12/17 01:59:21;;;;;;;9.57;5.50;;;3.60;75.10;;;;;;5052973;28;20021;-70
2020/12/17 02:01:48;;;;;;;11.00;5.47;;;3.50;75.20;;;;;;5053504;28;20071;-70
2020/12/17 02:04:19;;;;;;;9.80;5.30;;;3.50;75.00;;;;;;5052745;28;20337;-70
2020/12/17 02:06:46;;;;;;;12.25;5.80;;;3.50;75.20;;;;;;5053077;28;20043;-70
2020/12/17 02:09:13;;;;;;;8.98;4.72;;;3.50;75.40;;;;;;5051636;28;20075;-70
2020/12/17 02:11:39;;;;;;;9.43;5.35;;;3.50;75.50;;;;;;5053278;28;20027;-70
2020/12/17 02:14:05;;;;;;;10.68;5.00;;;3.60;75.50;;;;;;5052405;28;20025;-70
2020/12/17 02:16:31;;;;;;;9.60;5.90;;;3.60;75.50;;;;;;5052992;28;20036;-71
2020/12/17 02:18:56;;;;;;;12.15;6.57;;;3.60;75.30;;;;;;5053437;28;20106;-70
2020/12/17 02:21:22;;;;;;;14.38;7.05;;;3.60;75.20;;;;;;5052908;28;20020;-74
2020/12/17 02:23:48;;;;;;;8.55;5.30;;;3.60;75.20;;;;;;5052476;28;20025;-70
2020/12/17 02:26:14;;;;;;;11.45;6.32;;;3.60;75.40;;;;;;5052501;28;20025;-70
2020/12/17 02:28:41;;;;;;;12.52;6.68;;;3.60;75.20;;;;;;5052774;28;20024;-71
2020/12/17 02:31:07;;;;;;;13.82;6.22;;;3.60;75.10;;;;;;5052505;28;20028;-70
2020/12/17 02:33:33;;;;;;;13.25;6.72;;;3.60;75.30;;;;;;5052525;28;20016;-70
2020/12/17 02:35:59;;;;;;;13.88;6.65;;;3.60;75.30;;;;;;5055831;28;20102;-70
2020/12/17 02:38:24;;;;;;;13.20;7.03;;;3.60;75.40;;;;;;5056313;28;20041;-70
2020/12/17 02:40:51;;;;;;;14.95;7.03;;;3.60;75.40;;;;;;5054936;28;20079;-70
2020/12/17 02:43:17;;;;;;;15.73;7.70;;;3.60;75.30;;;;;;5056121;28;20031;-70
2020/12/17 02:45:46;;;;;;;17.55;7.68;;;3.70;75.30;;;;;;5055967;28;20096;-70
2020/12/17 02:48:12;;;;;;;14.98;7.00;;;3.60;75.20;;;;;;5056138;28;20017;-69
2020/12/17 02:50:39;;;;;;;24.50;8.82;;;3.60;75.20;;;;;;5056129;28;20020;-69
2020/12/17 02:53:06;;;;;;;17.23;7.32;;;3.60;75.40;;;;;;5056045;28;20028;-69
2020/12/17 02:55:32;;;;;;;13.85;7.38;;;3.70;75.90;;;;;;5055983;28;20017;-70
2020/12/17 02:57:57;;;;;;;13.88;7.15;;;3.70;75.60;;;;;;5056447;28;20100;-70
2020/12/17 03:00:23;;;;;;;16.40;8.15;;;3.70;75.70;;;;;;5055948;28;20048;-70
2020/12/17 03:02:49;;;;;;;20.65;10.60;;;3.80;75.80;;;;;;5055572;28;20059;-70
2020/12/17 03:05:15;;;;;;;17.48;8.88;;;3.80;75.70;;;;;;5055809;28;20025;-69
2020/12/17 03:07:40;;;;;;;111.88;50.45;;;3.80;75.60;;;;;;5056004;28;20020;-70
2020/12/17 03:10:06;;;;;;;15.85;8.27;;;3.90;75.90;;;;;;5055994;28;20052;-71
2020/12/17 03:12:32;;;;;;;15.88;8.55;;;3.90;75.60;;;;;;5055673;28;20025;-70
2020/12/17 03:14:58;;;;;;;15.48;7.35;;;3.90;75.20;;;;;;5055536;28;20104;-69
2020/12/17 03:17:24;;;;;;;21.92;13.75;;;3.90;75.10;;;;;;5055549;28;20032;-70
2020/12/17 03:19:49;;;;;;;15.38;7.93;;;3.90;75.40;;;;;;5056010;28;20017;-71
2020/12/17 03:22:15;;;;;;;17.35;8.40;;;4.00;75.50;;;;;;5055191;28;20419;-70
2020/12/17 03:24:41;;;;;;;16.55;8.50;;;4.00;75.30;;;;;;5055093;28;20112;-70
2020/12/17 03:27:07;;;;;;;15.93;8.43;;;3.90;75.00;;;;;;5055114;28;20029;-70
2020/12/17 03:29:32;;;;;;;21.00;9.90;;;3.90;74.90;;;;;;5055836;28;20017;-70
2020/12/17 03:31:58;;;;;;;25.35;10.65;;;3.90;75.10;;;;;;5055364;28;20032;-69
2020/12/17 03:34:23;;;;;;;26.08;11.27;;;4.00;75.30;;;;;;5055304;28;20028;-69
2020/12/17 03:36:49;;;;;;;20.60;9.35;;;4.00;75.10;;;;;;5055212;28;20451;-69
2020/12/17 03:39:15;;;;;;;14.95;8.50;;;4.00;75.00;;;;;;5054964;28;20063;-70
2020/12/17 03:41:40;;;;;;;15.55;8.43;;;3.90;74.80;;;;;;5055163;28;20046;-70
2020/12/17 03:44:06;;;;;;;14.90;8.70;;;3.90;74.80;;;;;;5055570;28;20021;-70
2020/12/17 03:46:32;;;;;;;18.27;9.15;;;3.90;74.70;;;;;;5055007;28;20457;-70
2020/12/17 03:48:57;;;;;;;18.13;9.88;;;3.80;74.70;;;;;;5053920;28;20364;-70
2020/12/17 03:51:23;;;;;;;20.25;9.70;;;3.70;74.60;;;;;;5053699;28;20063;-69
2020/12/17 03:53:49;;;;;;;21.60;10.00;;;3.70;74.70;;;;;;5055166;28;20095;-70
2020/12/17 03:56:15;;;;;;;17.90;10.40;;;3.60;74.70;;;;;;5055543;28;20025;-69
2020/12/17 03:58:40;;;;;;;19.50;10.73;;;3.50;74.90;;;;;;5053675;28;20025;-70
2020/12/17 04:01:06;;;;;;;21.60;11.65;;;3.50;75.10;;;;;;5054722;28;20445;-69
2020/12/17 04:03:32;;;;;;;24.95;13.30;;;3.50;75.40;;;;;;5053418;28;20043;-70
2020/12/17 04:05:57;;;;;;;22.95;12.20;;;3.50;75.40;;;;;;5054920;28;20055;-71
2020/12/17 04:08:23;;;;;;;17.88;10.15;;;3.50;75.40;;;;;;5054802;28;20067;-69
2020/12/17 04:10:49;;;;;;;20.15;11.45;;;3.50;75.50;;;;;;5055010;28;20045;-70
2020/12/17 04:13:14;;;;;;;19.27;10.55;;;3.50;75.60;;;;;;5055189;28;20032;-69
2020/12/17 04:15:40;;;;;;;24.02;10.95;;;3.50;75.80;;;;;;5054082;28;20033;-69
2020/12/17 04:18:05;;;;;;;14.15;8.65;;;3.60;76.00;;;;;;5054346;28;20533;-69
2020/12/17 04:20:31;;;;;;;16.85;9.35;;;3.60;76.00;;;;;;5053488;28;20032;-70
2020/12/17 04:22:57;;;;;;;17.38;9.13;;;3.60;75.80;;;;;;5054493;28;20025;-70
2020/12/17 04:25:22;;;;;;;18.85;9.75;;;3.60;76.50;;;;;;5053142;28;20033;-71
2020/12/17 04:27:48;;;;;;;19.00;9.85;;;3.60;75.90;;;;;;5054665;28;20389;-70
2020/12/17 04:30:14;;;;;;;15.77;9.40;;;3.60;75.50;;;;;;5053315;28;20016;-70
2020/12/17 04:32:39;;;;;;;17.88;9.15;;;3.60;75.70;;;;;;5053980;28;20025;-69
2020/12/17 04:35:05;;;;;;;17.35;9.07;;;3.60;75.70;;;;;;5052802;28;20040;-70
2020/12/17 04:37:31;;;;;;;18.40;8.40;;;3.60;76.00;;;;;;5053754;28;20017;-70
2020/12/17 04:39:56;;;;;;;16.27;8.05;;;3.70;76.10;;;;;;5052740;28;20032;-70
2020/12/17 04:42:24;;;;;;;18.17;8.63;;;3.70;76.10;;;;;;5053947;28;20521;-71
2020/12/17 04:44:51;;;;;;;16.23;8.82;;;3.70;76.00;;;;;;5052517;28;20028;-71
2020/12/17 04:47:20;;;;;;;17.80;8.60;;;3.70;75.90;;;;;;5054036;28;20028;-71
2020/12/17 04:49:51;;;;;;;16.35;8.07;;;3.70;75.90;;;;;;5053757;28;20044;-70
2020/12/17 04:52:17;;;;;;;19.42;9.90;;;3.80;76.10;;;;;;5053912;28;20040;-70
2020/12/17 04:54:43;;;;;;;16.40;9.35;;;3.70;76.60;;;;;;5052053;28;20028;-72
2020/12/17 04:57:12;;;;;;;13.88;8.73;;;3.70;75.60;;;;;;5052883;28;20369;-71
2020/12/17 04:59:49;;;;;;;17.95;9.45;;;3.70;75.60;;;;;;5053779;28;20369;-71
2020/12/17 05:02:17;;;;;;;14.40;9.23;;;3.70;75.50;;;;;;5053179;28;20021;-71
2020/12/17 05:04:45;;;;;;;12.23;7.07;;;3.70;75.70;;;;;;5052107;28;20029;-71
2020/12/17 05:07:15;;;;;;;15.27;7.88;;;3.70;75.50;;;;;;5053454;28;20025;-72
2020/12/17 05:09:42;;;;;;;15.50;8.10;;;3.60;75.40;;;;;;5053603;28;20040;-71
2020/12/17 05:12:09;;;;;;;14.77;8.10;;;3.60;75.50;;;;;;5053735;28;20404;-71
2020/12/17 05:14:35;;;;;;;13.45;7.22;;;3.60;75.50;;;;;;5053422;28;20028;-72
2020/12/17 05:17:00;;;;;;;14.20;7.45;;;3.50;75.60;;;;;;5053624;28;20112;-74
2020/12/17 05:19:27;;;;;;;19.67;8.70;;;3.60;76.00;;;;;;5052497;28;20132;-71
2020/12/17 05:21:55;;;;;;;19.40;9.77;;;3.60;76.20;;;;;;5053258;28;20032;-71
2020/12/17 05:24:21;;;;;;;21.05;9.82;;;3.60;76.10;;;;;;5053459;28;20021;-71
2020/12/17 05:26:51;;;;;;;24.63;11.45;;;3.60;76.30;;;;;;5051977;28;20346;-70
2020/12/17 05:29:17;;;;;;;29.30;12.50;;;3.60;76.10;;;;;;5053273;28;20021;-71
2020/12/17 05:31:44;;;;;;;25.05;12.23;;;3.70;76.20;;;;;;5053517;28;20044;-72
2020/12/17 05:34:10;;;;;;;31.48;14.13;;;3.70;76.00;;;;;;5053211;28;20032;-70
2020/12/17 05:36:37;;;;;;;29.35;12.63;;;3.60;75.90;;;;;;5053250;28;20040;-71
2020/12/17 05:39:06;;;;;;;29.48;11.00;;;3.60;76.00;;;;;;5053397;28;20060;-71
2020/12/17 05:41:35;;;;;;;30.45;12.32;;;3.60;76.00;;;;;;5052786;28;20052;-71
2020/12/17 05:44:21;;;;;;;30.05;12.82;;;3.60;75.90;;;;;;5053054;28;20453;-72
2020/12/17 05:46:49;;;;;;;27.23;11.50;;;3.60;75.70;;;;;;5053089;28;20039;-71
2020/12/17 05:49:22;;;;;;;30.35;11.73;;;3.60;75.90;;;;;;5051778;28;20057;-71
2020/12/17 05:51:49;;;;;;;27.90;11.75;;;3.60;76.20;;;;;;5053012;28;20028;-70
2020/12/17 05:54:23;;;;;;;24.55;10.95;;;3.60;76.10;;;;;;5053019;28;20021;-70
2020/12/17 05:57:02;;;;;;;25.80;10.82;;;3.70;76.20;;;;;;5052959;28;20453;-70
2020/12/17 05:59:28;;;;;;;21.45;10.27;;;3.70;76.40;;;;;;5053279;28;20403;-69
2020/12/17 06:01:54;;;;;;;20.92;9.15;;;3.70;76.20;;;;;;5053170;28;20021;-70
2020/12/17 06:04:19;;;;;;;14.52;8.07;;;3.70;76.30;;;;;;5052999;28;20025;-71
2020/12/17 06:06:47;;;;;;;16.25;8.15;;;3.70;76.30;;;;;;5051768;28;20044;-71
2020/12/17 06:09:23;;;;;;;16.83;7.45;;;3.70;76.20;;;;;;5053632;28;20040;-72
2020/12/17 06:11:51;;;;;;;19.05;8.93;;;3.80;76.40;;;;;;5057325;28;20075;-70
2020/12/17 06:14:24;;;;;;;13.73;7.60;;;3.80;76.30;;;;;;5056627;28;20056;-71
2020/12/17 06:16:55;;;;;;;15.27;8.23;;;3.80;76.40;;;;;;5056087;28;20453;-72
2020/12/17 06:19:23;;;;;;;22.77;9.75;;;3.80;76.20;;;;;;5055291;28;20090;-72
2020/12/17 06:21:49;;;;;;;23.40;10.25;;;3.80;76.20;;;;;;5056479;28;20033;-73
2020/12/17 06:24:18;;;;;;;24.08;12.60;;;3.80;76.30;;;;;;5056773;28;20021;-72
2020/12/17 06:26:51;;;;;;;28.88;12.10;;;3.90;76.50;;;;;;5055116;28;20364;-72
2020/12/17 06:29:22;;;;;;;28.58;13.40;;;3.90;76.50;;;;;;5056389;28;20021;-71
2020/12/17 06:31:56;;;;;;;28.83;13.48;;;3.90;76.10;;;;;;5056318;28;20025;-72
2020/12/17 06:34:22;;;;;;;21.85;10.57;;;3.90;75.90;;;;;;5056409;28;20025;-72
2020/12/17 06:36:57;;;;;;;24.80;11.57;;;3.90;76.10;;;;;;5055281;28;20341;-72
2020/12/17 06:39:24;;;;;;;20.25;10.77;;;3.90;76.00;;;;;;5055382;28;20031;-71
2020/12/17 06:41:50;;;;;;;24.02;11.77;;;3.90;76.20;;;;;;5056381;28;20013;-71
2020/12/17 06:44:29;;;;;;;22.80;11.73;;;3.90;76.30;;;;;;5055821;28;20044;-71
2020/12/17 06:47:03;;;;;;;18.70;9.00;;;3.90;76.30;;;;;;5054582;28;20127;-71
2020/12/17 06:49:30;;;;;;;21.45;10.48;;;4.00;76.20;;;;;;5056599;28;20021;-71
2020/12/17 06:52:09;;;;;;;18.15;9.23;;;4.00;76.20;;;;;;5055783;28;20115;-72
2020/12/17 06:54:40;;;;;;;22.63;9.77;;;4.00;76.10;;;;;;5056081;28;20028;-72
2020/12/17 06:57:07;;;;;;;18.50;9.98;;;4.00;75.80;;;;;;5055321;28;20086;-71
2020/12/17 06:59:34;;;;;;;17.85;8.55;;;4.00;76.10;;;;;;5055714;28;20025;-69
2020/12/17 07:02:00;;;;;;;19.27;8.93;;;4.00;76.10;;;;;;5055968;28;20404;-72
2020/12/17 07:04:47;;;;;;;20.52;10.82;;;4.00;76.70;;;;;;5055544;28;20080;-70
2020/12/17 07:07:23;;;;;;;21.30;9.55;;;4.00;76.00;;;;;;5055433;28;20111;-72
2020/12/17 07:09:51;;;;;;;24.00;10.02;;;4.00;76.10;;;;;;5054089;28;20053;-71
2020/12/17 07:12:35;;;;;;;20.85;10.48;;;4.00;76.00;;;;;;5055114;28;20028;-70
2020/12/17 07:15:03;;;;;;;18.38;8.60;;;4.00;76.10;;;;;;5055004;28;20021;-71
2020/12/17 07:17:29;;;;;;;22.38;10.95;;;4.00;76.00;;;;;;5055042;28;20045;-71
2020/12/17 07:19:55;;;;;;;20.65;11.15;;;4.10;76.00;;;;;;5054969;28;20041;-72
2020/12/17 07:22:21;;;;;;;26.52;12.70;;;4.10;76.00;;;;;;5054001;28;20450;-71
2020/12/17 07:24:54;;;;;;;26.38;13.70;;;4.10;75.90;;;;;;5055458;28;20039;-71
2020/12/17 07:27:24;;;;;;;31.38;15.60;;;4.10;75.80;;;;;;5053854;28;20021;-71
2020/12/17 07:30:04;;;;;;;29.90;12.15;;;4.10;76.00;;;;;;5055190;28;20025;-70
2020/12/17 07:32:36;;;;;;;27.02;12.57;;;4.10;75.90;;;;;;5055141;28;20360;-72
2020/12/17 07:35:08;;;;;;;27.80;13.68;;;4.10;75.40;;;;;;5055129;28;20029;-71
2020/12/17 07:37:49;;;;;;;29.05;14.10;;;4.00;75.70;;;;;;5054893;28;20067;-70
2020/12/17 07:40:20;;;;;;;32.67;15.05;;;4.00;75.80;;;;;;5055889;28;20016;-70
2020/12/17 07:43:06;;;;;;;35.20;16.00;;;4.00;76.10;;;;;;5053736;28;20407;-70
2020/12/17 07:45:46;;;;;;;28.85;15.13;;;4.10;76.30;;;;;;5054755;28;20538;-70
2020/12/17 07:48:33;;;;;;;34.88;17.40;;;4.20;76.20;;;;;;5054996;28;20017;-72
2020/12/17 07:51:01;;;;;;;36.95;17.63;;;4.20;76.10;;;;;;5055333;28;20158;-71
2020/12/17 07:53:27;;;;;;;27.05;15.25;;;4.30;76.30;;;;;;5053674;28;20052;-69
2020/12/17 07:55:54;;;;;;;31.63;16.13;;;4.30;76.40;;;;;;5054306;28;20021;-69
2020/12/17 07:58:21;;;;;;;28.48;15.10;;;4.40;76.40;;;;;;5055048;28;20021;-70
2020/12/17 08:00:54;;;;;;;31.00;14.57;;;4.40;76.20;;;;;;5054880;28;20028;-70
2020/12/17 08:03:21;;;;;;;31.75;15.27;;;4.50;76.00;;;;;;5054700;28;20013;-70
2020/12/17 08:05:47;;;;;;;29.10;15.60;;;4.50;75.80;;;;;;5054861;28;20033;-69
2020/12/17 08:08:14;;;;;;;28.23;16.75;;;4.50;76.00;;;;;;5054599;28;20028;-70
2020/12/17 08:10:40;;;;;;;26.75;15.00;;;4.60;75.70;;;;;;5054800;28;20052;-70
2020/12/17 08:13:06;;;;;;;27.08;14.48;;;4.60;75.50;;;;;;5054465;28;20033;-71
2020/12/17 08:15:32;;;;;;;34.65;18.27;;;4.70;75.10;;;;;;5054474;28;20082;-71
2020/12/17 08:17:58;;;;;;;24.67;13.88;;;4.70;75.00;;;;;;5054187;28;20025;-73
2020/12/17 08:20:27;;;;;;;22.58;13.00;;;4.70;75.10;;;;;;5054676;28;20016;-70
2020/12/17 08:22:53;;;;;;;28.23;14.27;;;4.70;75.20;;;;;;5054538;28;20025;-72
2020/12/17 08:25:20;;;;;;;27.63;13.20;;;4.70;74.80;;;;;;5054490;28;20040;-70
2020/12/17 08:27:47;;;;;;;27.98;15.32;;;4.70;74.80;;;;;;5054440;28;20028;-69
2020/12/17 08:30:14;;;;;;;28.75;15.63;;;4.70;74.50;;;;;;5054865;28;20079;-71
2020/12/17 08:32:53;;;;;;;34.10;16.77;;;4.80;75.00;;;;;;5053684;28;20025;-71
2020/12/17 08:35:24;;;;;;;39.97;20.05;;;4.80;74.80;;;;;;5036506;28;20025;-71
2020/12/17 08:37:56;;;;;;;37.50;19.17;;;4.80;74.30;;;;;;5053081;28;20029;-70
2020/12/17 08:40:27;;;;;;;30.80;12.93;;;4.80;74.60;;;;;;5053889;28;20017;-71
2020/12/17 08:43:01;;;;;;;30.00;13.50;;;4.80;74.50;;;;;;5054172;28;20025;-71
2020/12/17 08:45:28;;;;;;;24.85;12.45;;;4.90;74.60;;;;;;5054213;28;20032;-71
2020/12/17 08:47:59;;;;;;;22.92;12.07;;;4.90;74.70;;;;;;5054008;28;20480;-70
2020/12/17 08:50:26;;;;;;;27.15;14.55;;;5.00;75.40;;;;;;5053881;28;20037;-71
2020/12/17 08:52:53;;;;;;;36.33;17.77;;;5.00;74.50;;;;;;5053638;28;20102;-73
2020/12/17 08:55:22;;;;;;;40.03;17.95;;;5.00;74.00;;;;;;5053951;28;20461;-72
2020/12/17 08:57:48;;;;;;;56.78;20.40;;;5.00;73.50;;;;;;5053805;28;20021;-70
2020/12/17 09:00:19;;;;;;;34.63;16.25;;;5.00;73.60;;;;;;5053792;28;20028;-71
2020/12/17 09:02:45;;;;;;;30.95;15.85;;;4.90;74.00;;;;;;5053469;28;20017;-72
2020/12/17 09:05:13;;;;;;;21.70;12.88;;;4.90;74.00;;;;;;5053597;28;20421;-71
2020/12/17 09:07:46;;;;;;;52.85;20.20;;;5.00;74.20;;;;;;5052098;28;20338;-71
2020/12/17 09:10:14;;;;;;;44.88;18.88;;;5.00;74.40;;;;;;5053776;28;20460;-72
2020/12/17 09:12:44;;;;;;;24.23;13.02;;;5.10;74.60;;;;;;5054201;28;20071;-70
2020/12/17 09:15:12;;;;;;;34.35;16.98;;;5.10;74.30;;;;;;5053102;28;20093;-71
2020/12/17 09:17:39;;;;;;;29.15;13.95;;;5.20;74.20;;;;;;5053432;28;20021;-72
2020/12/17 09:34:16;;;;;;;20.85;11.25;;;5.20;72.90;;;;;;5053010;28;20128;-70
2020/12/17 09:36:44;;;;;;;19.80;10.60;;;5.20;73.00;;;;;;5052655;28;20025;-70
2020/12/17 09:39:13;;;;;;;19.30;11.65;;;5.20;73.10;;;;;;5053119;28;20409;-70
2020/12/17 09:41:50;;;;;;;20.55;11.23;;;5.20;72.90;;;;;;5053590;28;20028;-71
2020/12/17 09:44:29;;;;;;;22.77;11.85;;;5.10;72.90;;;;;;5056248;28;20127;-71
2020/12/17 09:46:55;;;;;;;28.50;13.75;;;5.10;73.00;;;;;;5056056;28;20040;-70
2020/12/17 09:49:26;;;;;;;23.42;12.25;;;5.00;72.90;;;;;;5057079;28;20021;-70
2020/12/17 09:52:07;;;;;;;26.27;13.02;;;5.00;73.10;;;;;;5057046;28;20021;-71
2020/12/17 09:54:36;;;;;;;22.60;12.25;;;5.00;73.30;;;;;;5056973;28;20028;-70
2020/12/17 09:57:07;;;;;;;27.02;13.07;;;5.00;73.30;;;;;;5056844;28;20025;-71
2020/12/17 09:59:33;;;;;;;25.30;12.45;;;5.00;73.30;;;;;;5057037;28;20017;-71
2020/12/17 10:02:03;;;;;;;32.60;14.20;;;5.00;73.50;;;;;;5056626;28;20023;-71
2020/12/17 10:04:29;;;;;;;24.95;12.93;;;5.10;73.70;;;;;;5055601;28;20029;-71
2020/12/17 10:06:55;;;;;;;23.90;13.02;;;5.10;73.70;;;;;;5056300;28;20021;-71
2020/12/17 10:09:21;;;;;;;23.23;12.18;;;5.20;73.80;;;;;;5056777;28;20353;-71
2020/12/17 10:11:52;;;;;;;24.63;13.52;;;5.20;73.70;;;;;;5055604;28;20028;-71
2020/12/17 10:14:19;;;;;;;31.33;14.77;;;5.30;73.90;;;;;;5056718;28;20033;-70
2020/12/17 10:16:45;;;;;;;30.55;16.25;;;5.40;73.90;;;;;;5056821;28;20025;-71
2020/12/17 10:19:11;;;;;;;28.35;14.43;;;5.40;73.70;;;;;;5056786;28;20039;-71
2020/12/17 10:21:38;;;;;;;30.42;17.55;;;5.50;73.70;;;;;;5056625;28;20021;-71
2020/12/17 10:24:05;;;;;;;30.13;15.00;;;5.50;73.30;;;;;;5056385;28;20040;-70
2020/12/17 10:26:31;;;;;;;26.70;15.27;;;5.60;73.30;;;;;;5056904;28;20027;-69
2020/12/17 10:28:58;;;;;;;35.95;17.30;;;5.60;72.90;;;;;;5056151;28;20044;-70
2020/12/17 10:31:27;;;;;;;33.58;17.85;;;5.60;72.60;;;;;;5056863;28;20100;-71
2020/12/17 10:33:54;;;;;;;30.13;16.98;;;5.60;72.80;;;;;;5055062;28;20116;-71
2020/12/17 10:36:20;;;;;;;30.13;16.42;;;5.60;72.80;;;;;;5056344;28;20013;-70
2020/12/17 10:38:47;;;;;;;31.05;16.15;;;5.60;73.00;;;;;;5056185;28;20028;-71
2020/12/17 10:41:13;;;;;;;29.75;16.77;;;5.60;72.60;;;;;;5056376;28;20357;-71
2020/12/17 10:43:40;;;;;;;28.83;15.95;;;5.60;72.50;;;;;;5054638;28;20021;-70
2020/12/17 10:46:06;;;;;;;34.28;18.15;;;5.60;72.20;;;;;;5056177;28;20086;-71
2020/12/17 10:48:31;;;;;;;36.15;18.13;;;5.60;72.40;;;;;;5056200;28;20096;-70
2020/12/17 10:50:58;;;;;;;34.13;17.67;;;5.50;72.70;;;;;;5056336;28;20024;-69
2020/12/17 10:53:24;;;;;;;31.35;16.27;;;5.60;72.80;;;;;;5056181;28;20021;-70
2020/12/17 10:55:49;;;;;;;50.47;26.90;;;5.60;72.90;;;;;;5053808;28;20024;-70
2020/12/17 10:58:15;;;;;;;45.25;24.20;;;5.60;72.90;;;;;;5055812;28;20045;-70
2020/12/17 11:00:41;;;;;;;43.42;19.73;;;5.70;73.20;;;;;;5054559;28;20029;-71
2020/12/17 11:03:07;;;;;;;33.33;19.42;;;5.80;73.20;;;;;;5055991;28;20115;-69
2020/12/17 11:05:36;;;;;;;30.52;17.60;;;5.80;72.60;;;;;;5055700;28;20074;-70
2020/12/17 11:08:03;;;;;;;34.85;22.75;;;5.90;72.40;;;;;;5055646;28;20068;-71
2020/12/17 11:10:28;;;;;;;36.30;21.77;;;5.80;72.20;;;;;;5055703;28;20049;-71
2020/12/17 11:12:54;;;;;;;29.30;15.93;;;5.80;72.20;;;;;;5055870;28;20502;-71
2020/12/17 11:15:20;;;;;;;28.08;15.32;;;5.80;72.00;;;;;;5055431;28;20040;-69
2020/12/17 11:17:46;;;;;;;22.70;12.60;;;5.80;72.10;;;;;;5055833;28;20033;-72
2020/12/17 11:20:12;;;;;;;28.50;14.75;;;5.70;71.90;;;;;;5055538;28;20017;-71
2020/12/17 11:22:39;;;;;;;23.27;14.25;;;5.70;71.80;;;;;;5055458;28;20025;-71
2020/12/17 11:25:05;;;;;;;30.65;15.20;;;5.70;72.20;;;;;;5055322;28;20032;-70
2020/12/17 11:27:31;;;;;;;28.45;15.68;;;5.60;72.10;;;;;;5055135;28;20021;-71
2020/12/17 11:29:57;;;;;;;39.25;18.52;;;5.60;72.10;;;;;;5055553;28;20013;-71
2020/12/17 11:32:23;;;;;;;32.58;16.13;;;5.60;72.10;;;;;;5055355;28;20441;-71
2020/12/17 11:34:50;;;;;;;50.53;24.20;;;5.50;72.30;;;;;;5054822;28;20036;-71
2020/12/17 11:37:16;;;;;;;25.73;14.43;;;5.50;72.60;;;;;;5055053;28;20024;-71
2020/12/17 11:39:45;;;;;;;24.05;13.73;;;5.60;72.80;;;;;;5055315;28;20028;-69
2020/12/17 11:42:12;;;;;;;23.08;13.32;;;5.60;72.60;;;;;;5055059;28;20025;-70
2020/12/17 11:44:38;;;;;;;25.83;15.10;;;5.70;72.60;;;;;;5055118;28;20083;-71
2020/12/17 11:47:04;;;;;;;26.05;13.50;;;5.70;72.70;;;;;;5055557;28;20330;-72
2020/12/17 11:49:31;;;;;;;23.52;13.55;;;5.70;72.70;;;;;;5055268;28;20028;-70
2020/12/17 11:51:56;;;;;;;27.20;14.32;;;5.70;72.50;;;;;;5054887;28;20027;-72
2020/12/17 11:54:22;;;;;;;28.25;15.27;;;5.70;72.50;;;;;;5055001;28;20104;-71
2020/12/17 11:56:51;;;;;;;30.25;15.60;;;5.70;72.60;;;;;;5055247;28;20016;-71
2020/12/17 11:59:18;;;;;;;34.55;19.30;;;5.80;72.60;;;;;;5054764;28;20181;-71
2020/12/17 12:01:45;;;;;;;40.63;23.35;;;5.80;72.40;;;;;;5054789;28;20078;-71
2020/12/17 12:04:11;;;;;;;37.03;19.38;;;5.80;72.40;;;;;;5054427;28;20056;-70
2020/12/17 12:06:38;;;;;;;36.85;20.42;;;5.80;72.40;;;;;;5052190;28;20052;-70
2020/12/17 12:09:06;;;;;;;36.35;19.40;;;5.90;72.40;;;;;;5054017;28;20041;-74
2020/12/17 12:11:32;;;;;;;34.10;20.10;;;5.80;72.50;;;;;;5054437;28;20021;-70
2020/12/17 12:13:59;;;;;;;38.75;20.20;;;5.90;72.60;;;;;;5054326;28;20037;-71
2020/12/17 12:16:25;;;;;;;36.63;16.60;;;5.90;72.60;;;;;;5053638;28;20025;-70
2020/12/17 12:18:51;;;;;;;39.42;17.63;;;6.00;72.60;;;;;;5054792;28;20104;-70
2020/12/17 12:21:17;;;;;;;36.83;17.95;;;6.00;72.40;;;;;;5053025;28;20017;-70
2020/12/17 12:23:44;;;;;;;33.90;17.38;;;6.00;72.10;;;;;;5053423;28;20025;-71
2020/12/17 12:26:11;;;;;;;40.33;18.50;;;6.00;72.00;;;;;;5054142;28;20480;-71
2020/12/17 12:28:40;;;;;;;40.80;18.13;;;6.00;72.10;;;;;;5053907;28;20045;-72
2020/12/17 12:31:06;;;;;;;29.33;15.68;;;6.00;72.10;;;;;;5054138;28;20029;-71
2020/12/17 12:33:33;;;;;;;36.30;17.35;;;6.00;72.10;;;;;;5053801;28;20461;-72
2020/12/17 12:35:58;;;;;;;37.40;16.90;;;6.00;72.00;;;;;;5053734;28;20517;-71
2020/12/17 12:38:24;;;;;;;37.85;17.05;;;6.00;72.00;;;;;;5053904;28;20029;-72
2020/12/17 12:40:50;;;;;;;33.75;16.52;;;6.00;71.80;;;;;;5053531;28;20024;-71
2020/12/17 12:43:15;;;;;;;31.92;17.02;;;6.00;71.80;;;;;;5054006;28;20078;-72
2020/12/17 12:45:41;;;;;;;39.67;18.85;;;5.90;71.90;;;;;;5054332;28;20060;-72
2020/12/17 12:48:07;;;;;;;51.08;22.15;;;5.90;71.80;;;;;;5054282;28;20052;-72
2020/12/17 12:50:33;;;;;;;32.25;17.30;;;5.90;71.70;;;;;;5052700;28;20025;-70
2020/12/17 12:52:59;;;;;;;32.63;15.88;;;5.80;71.70;;;;;;5054038;28;20044;-71
2020/12/17 12:55:25;;;;;;;30.05;17.27;;;5.80;71.90;;;;;;5053907;28;20071;-70
2020/12/17 12:57:52;;;;;;;34.70;17.80;;;5.80;72.10;;;;;;5053254;28;20088;-71